Time,TemperatureF,DewpointF,PressureIn,WindDirection,WindDirectionDegrees,WindSpeedMPH,WindSpeedGustMPH,Humidity,HourlyPrecipIn,Conditions,Clouds,dailyrainin,SolarRadiationWatts/m^2,SoftwareType,DateUTC
2013-04-24 00:02:00,34.0,-3.0,-100.00,ESE,113,4.0,7.0,20,0.00,,,0.00,1.000000,,2013-04-24 06:02:00,
2013-04-24 00:11:00,34.0,-3.0,-100.00,ESE,113,4.0,7.0,20,0.00,,,0.00,1.000000,,2013-04-24 06:11:00,
2013-04-24 00:42:00,38.0,-7.0,-100.00,ENE,77,0.0,5.0,14,0.00,,,0.00,1.000000,,2013-04-24 06:42:00,
2013-04-24 00:52:00,38.0,-7.0,-100.00,ENE,77,0.0,5.0,14,0.00,,,0.00,1.000000,,2013-04-24 06:52:00,
2013-04-24 01:02:00,38.0,-7.0,-100.00,ENE,77,0.0,5.0,14,0.00,,,0.00,1.000000,,2013-04-24 07:02:00,
2013-04-24 01:11:00,38.0,-7.0,-100.00,ENE,77,0.0,5.0,14,0.00,,,0.00,1.000000,,2013-04-24 07:11:00,
2013-04-24 01:42:00,35.0,-9.0,-100.00,NNE,24,6.0,7.0,14,0.00,,,0.00,1.000000,,2013-04-24 07:42:00,
2013-04-24 01:52:00,35.0,-9.0,-100.00,NNE,24,6.0,7.0,14,0.00,,,0.00,1.000000,,2013-04-24 07:52:00,
2013-04-24 02:01:00,35.0,-9.0,-100.00,NNE,24,6.0,7.0,14,0.00,,,0.00,1.000000,,2013-04-24 08:01:00,
2013-04-24 02:11:00,35.0,-9.0,-100.00,NNE,24,6.0,7.0,14,0.00,,,0.00,1.000000,,2013-04-24 08:11:00,
2013-04-24 02:42:00,34.0,-6.0,-100.00,NE,55,6.0,7.0,17,0.00,,,0.00,1.000000,,2013-04-24 08:42:00,
2013-04-24 02:52:00,34.0,-6.0,-100.00,NE,55,6.0,7.0,17,0.00,,,0.00,1.000000,,2013-04-24 08:52:00,
2013-04-24 03:01:00,34.0,-6.0,-100.00,NE,55,6.0,7.0,17,0.00,,,0.00,1.000000,,2013-04-24 09:01:00,
2013-04-24 03:11:00,34.0,-6.0,-100.00,NE,55,6.0,7.0,17,0.00,,,0.00,1.000000,,2013-04-24 09:11:00,
2013-04-24 03:42:00,32.0,-6.0,-100.00,East,94,6.0,7.0,19,0.00,,,0.00,1.000000,,2013-04-24 09:42:00,
2013-04-24 03:53:00,32.0,-6.0,-100.00,East,94,6.0,7.0,19,0.00,,,0.00,1.000000,,2013-04-24 09:53:00,
2013-04-24 04:02:00,32.0,-6.0,-100.00,East,94,6.0,7.0,19,0.00,,,0.00,1.000000,,2013-04-24 10:02:00,
2013-04-24 04:12:00,32.0,-6.0,-100.00,East,94,6.0,7.0,19,0.00,,,0.00,1.000000,,2013-04-24 10:12:00,
2013-04-24 04:42:00,35.0,-4.0,-100.00,ENE,74,7.0,9.0,18,0.00,,,0.00,1.000000,,2013-04-24 10:42:00,
2013-04-24 04:53:00,35.0,-4.0,-100.00,ENE,74,7.0,9.0,18,0.00,,,0.00,1.000000,,2013-04-24 10:53:00,
2013-04-24 05:02:00,35.0,-4.0,-100.00,ENE,74,7.0,9.0,18,0.00,,,0.00,1.000000,,2013-04-24 11:02:00,
2013-04-24 05:11:00,35.0,-4.0,-100.00,ENE,74,7.0,9.0,18,0.00,,,0.00,1.000000,,2013-04-24 11:11:00,
2013-04-24 05:42:00,31.0,-5.0,-100.00,ESE,107,5.0,9.0,20,0.00,,,0.00,1.000000,,2013-04-24 11:42:00,
2013-04-24 05:52:00,31.0,-5.0,-100.00,ESE,107,5.0,9.0,20,0.00,,,0.00,1.000000,,2013-04-24 11:52:00,
2013-04-24 06:11:00,31.0,-5.0,-100.00,ESE,107,5.0,9.0,20,0.00,,,0.00,1.000000,,2013-04-24 12:11:00,
2013-04-24 06:42:00,31.0,-4.0,-100.00,ESE,112,5.0,7.0,21,0.00,,,0.00,1.000000,,2013-04-24 12:42:00,
2013-04-24 06:52:00,31.0,-4.0,-100.00,ESE,112,5.0,7.0,21,0.00,,,0.00,1.000000,,2013-04-24 12:52:00,
2013-04-24 07:01:00,31.0,-4.0,-100.00,ESE,112,5.0,7.0,21,0.00,,,0.00,1.000000,,2013-04-24 13:01:00,
2013-04-24 07:12:00,31.0,-4.0,-100.00,ESE,112,5.0,7.0,21,0.00,,,0.00,1.000000,,2013-04-24 13:12:00,
2013-04-24 08:42:00,41.0,-2.0,-100.00,ENE,75,7.0,12.0,16,-99.99,,,0.00,195.000000,,2013-04-24 14:42:00,
2013-04-24 09:43:00,46.0,-2.0,-100.00,ENE,63,10.0,14.0,13,0.00,,,0.00,459.000000,,2013-04-24 15:43:00,
2013-04-24 10:12:00,46.0,-2.0,-100.00,ENE,63,10.0,14.0,13,0.00,,,0.00,459.000000,,2013-04-24 16:12:00,
2013-04-24 10:42:00,50.0,-4.0,-100.00,ESE,116,5.0,14.0,10,-99.99,,,0.00,710.000000,,2013-04-24 16:42:00,
2013-04-24 10:52:00,50.0,-4.0,-100.00,ESE,116,5.0,14.0,10,-99.99,,,0.00,710.000000,,2013-04-24 16:52:00,
2013-04-24 11:02:00,50.0,-4.0,-100.00,ESE,116,5.0,14.0,10,-99.99,,,0.00,710.000000,,2013-04-24 17:02:00,
2013-04-24 11:12:00,50.0,-4.0,-100.00,ESE,116,5.0,14.0,10,-99.99,,,0.00,710.000000,,2013-04-24 17:12:00,
2013-04-24 11:42:00,54.0,-9.0,-100.00,South,171,4.0,12.0,7,0.00,,,0.00,460.000000,,2013-04-24 17:42:00,
2013-04-24 11:52:00,54.0,-9.0,-100.00,South,171,4.0,12.0,7,0.00,,,0.00,460.000000,,2013-04-24 17:52:00,
2013-04-24 12:43:00,57.0,-10.0,-100.00,SW,221,5.0,14.0,6,0.00,,,0.00,1075.000000,,2013-04-24 18:43:00,
2013-04-24 12:52:00,57.0,-10.0,-100.00,SW,221,5.0,14.0,6,0.00,,,0.00,1075.000000,,2013-04-24 18:52:00,
2013-04-24 13:42:00,59.0,-8.0,-100.00,NNW,330,4.0,16.0,6,0.00,,,0.00,1155.000000,,2013-04-24 19:42:00,
2013-04-24 13:52:00,59.0,-8.0,-100.00,NNW,330,4.0,16.0,6,0.00,,,0.00,1155.000000,,2013-04-24 19:52:00,
2013-04-24 14:42:00,61.0,-10.0,-100.00,NW,305,11.0,19.0,5,0.00,,,0.00,1191.000000,,2013-04-24 20:42:00,
2013-04-24 14:52:00,61.0,-10.0,-100.00,NW,305,11.0,19.0,5,0.00,,,0.00,1191.000000,,2013-04-24 20:52:00,
2013-04-24 15:42:00,61.0,-10.0,-100.00,NW,323,9.0,17.0,5,0.00,,,0.00,1134.000000,,2013-04-24 21:42:00,
2013-04-24 15:52:00,61.0,-10.0,-100.00,NW,323,9.0,17.0,5,0.00,,,0.00,1134.000000,,2013-04-24 21:52:00,
2013-04-24 16:42:00,61.0,-15.0,-100.00,WNW,284,11.0,20.0,4,0.00,,,0.00,1003.000000,,2013-04-24 22:42:00,
2013-04-24 16:52:00,61.0,-15.0,-100.00,WNW,284,11.0,20.0,4,0.00,,,0.00,1003.000000,,2013-04-24 22:52:00,
2013-04-24 17:42:00,60.0,-11.0,-100.00,WNW,290,12.0,24.0,5,0.00,,,0.00,708.000000,,2013-04-24 23:42:00,
2013-04-24 17:52:00,60.0,-11.0,-100.00,WNW,290,12.0,24.0,5,0.00,,,0.00,708.000000,,2013-04-24 23:52:00,
2013-04-24 18:12:00,60.0,-11.0,-100.00,WNW,290,12.0,24.0,5,0.00,,,0.00,708.000000,,2013-04-25 00:12:00,
2013-04-24 18:42:00,59.0,-12.0,-100.00,WNW,299,12.0,21.0,5,0.00,,,0.00,469.000000,,2013-04-25 00:42:00,
2013-04-24 18:52:00,59.0,-12.0,-100.00,WNW,299,12.0,21.0,5,0.00,,,0.00,469.000000,,2013-04-25 00:52:00,
2013-04-24 19:01:00,59.0,-12.0,-100.00,WNW,299,12.0,21.0,5,0.00,,,0.00,469.000000,,2013-04-25 01:01:00,
2013-04-24 19:11:00,59.0,-12.0,-100.00,WNW,299,12.0,21.0,5,0.00,,,0.00,469.000000,,2013-04-25 01:11:00,
2013-04-24 19:42:00,57.0,-10.0,-100.00,WNW,287,7.0,18.0,6,0.00,,,0.00,179.000000,,2013-04-25 01:42:00,
2013-04-24 19:52:00,57.0,-10.0,-100.00,WNW,287,7.0,18.0,6,0.00,,,0.00,179.000000,,2013-04-25 01:52:00,
2013-04-24 20:01:00,57.0,-10.0,-100.00,WNW,287,7.0,18.0,6,0.00,,,0.00,179.000000,,2013-04-25 02:01:00,
2013-04-24 20:11:00,57.0,-10.0,-100.00,WNW,287,7.0,18.0,6,0.00,,,0.00,179.000000,,2013-04-25 02:11:00,
2013-04-24 21:02:00,53.0,-4.0,-100.00,NNW,331,1.0,10.0,9,0.00,,,0.00,19.000000,,2013-04-25 03:02:00,
2013-04-24 21:11:00,53.0,-4.0,-100.00,NNW,331,1.0,10.0,9,0.00,,,0.00,19.000000,,2013-04-25 03:11:00,
2013-04-24 21:43:00,54.0,-12.0,-100.00,ENE,73,2.0,3.0,6,0.00,,,0.00,1.000000,,2013-04-25 03:43:00,
2013-04-24 21:52:00,54.0,-12.0,-100.00,ENE,73,2.0,3.0,6,0.00,,,0.00,1.000000,,2013-04-25 03:52:00,
2013-04-24 22:43:00,53.0,-13.0,-100.00,South,188,2.0,4.0,6,0.00,,,0.00,1.000000,,2013-04-25 04:43:00,
2013-04-24 22:52:00,53.0,-13.0,-100.00,South,188,2.0,4.0,6,0.00,,,0.00,1.000000,,2013-04-25 04:52:00,
2013-04-24 23:42:00,52.0,-10.0,-100.00,West,271,0.0,2.0,7,0.00,,,0.00,1.000000,,2013-04-25 05:42:00,
2013-04-24 23:52:00,52.0,-10.0,-100.00,West,271,0.0,2.0,7,0.00,,,0.00,1.000000,,2013-04-25 05:52:00,